جدة, السعودية

01:40 PM AST on وèلهبر 23, 2014 (GMT +0300)
King Abdulaziz International | Change Station
CLOSE
Current Station
Airport
Location: Jeddah,
Elevation: 49 ft
Nearby Weather Stations

Elev 49 ft 21.70 °N, 39.18 °E | Updated 40 minutes ago

Scattered Clouds
غيوم متفرقة
86 °F
Feels Like 87 °F
N
5
ريح متغير ريح from WSW

هذا اليوم
High -- | Low -- °F
--% Chance of Precip.
Yesterday
High -- | Low -- °F
Precip. -- في
6:39 AM 5:39 PM
قمر جدید, 1% visible
الضغط 29.86 في
وضوح الرؤية 6.2 أميال
سحابات Few 3500 ft
غيوم متفرقة 4000 ft
مؤشر الحرارة 87 °F
نقطة الندى 64 °F
الرطوبة 48%
Rainfall 0.00 في
عمق الثلج Not available.
الأشعة فوق البنفسجية 7 out of 12
Pollen Not available.
جودة الهواء Not available.
Flu Activity Not available.
METAR OEJN 231000Z 25004KT 9999 FEW035 SCT040 30/18 Q1011 NOSIG

More Conditions Fewer Conditions

الضغط 29.86 في
وضوح الرؤية 6.2 أميال
سحابات Few 3500 ft
غيوم متفرقة 4000 ft
مؤشر الحرارة 87 °F
نقطة الندى 64 °F
الرطوبة 48%
Rainfall 0.00 في
عمق الثلج Not available.
الأشعة فوق البنفسجية 7 out of 12
Pollen Not available.
جودة الهواء Not available.
Flu Activity Not available.
METAR OEJN 231000Z 25004KT 9999 FEW035 SCT040 30/18 Q1011 NOSIG

More Conditions Fewer Conditions

10-Day Weather Forecast

Almanac

علم الفلك

Nov. 23, 2014 Rise Set
Actual Time
Civil Twilight
Nautical Twilight
Astronomical Twilight
قمر
Length Of Visible Light
طول الیوم
Tomorrow will be .
, % of the Moon is Illuminated

Today's Extremes

Country Highs Country Lows

Community

WunderPhotos

Upload Photos

1,773,033 photos uploaded!

WunderBlogs® & News

Nearby

جودة الهواء

  جودة الهواء AQ Index Pollutant
Not available.

عمق الثلج

Station Depth Elevation

Earthquake Activity

City Distance Mag. Time & Date
Minimum magnitude displayed is 2.5.

Coastal Water Temperatures

مكان درجات الحرارة

Nearby Weather Stations